sensor_id;sensor_type;location;lat;lon;timestamp;temperature;humidity
38398;DHT22;24179;52.094;4.408;2022-11-20T00:01:45;-1.90;99.90
38398;DHT22;24179;52.094;4.408;2022-11-20T00:04:45;-2.00;99.90
38398;DHT22;24179;52.094;4.408;2022-11-20T00:07:46;-2.00;99.90
38398;DHT22;24179;52.094;4.408;2022-11-20T00:10:46;-2.00;99.90
38398;DHT22;24179;52.094;4.408;2022-11-20T00:13:47;-2.10;99.90
38398;DHT22;24179;52.094;4.408;2022-11-20T00:16:48;-2.10;99.90
38398;DHT22;24179;52.094;4.408;2022-11-20T00:19:49;-2.10;99.90
38398;DHT22;24179;52.094;4.408;2022-11-20T00:22:49;-2.20;99.90
38398;DHT22;24179;52.094;4.408;2022-11-20T00:25:50;-2.20;99.90
38398;DHT22;24179;52.094;4.408;2022-11-20T00:28:52;-2.30;99.90
38398;DHT22;24179;52.094;4.408;2022-11-20T00:31:52;-2.30;99.90
38398;DHT22;24179;52.094;4.408;2022-11-20T00:34:53;-2.20;99.90
38398;DHT22;24179;52.094;4.408;2022-11-20T00:37:53;-2.20;99.90
38398;DHT22;24179;52.094;4.408;2022-11-20T00:40:54;-2.30;99.90
38398;DHT22;24179;52.094;4.408;2022-11-20T00:43:55;-2.30;99.90
38398;DHT22;24179;52.094;4.408;2022-11-20T00:46:56;-2.40;99.90
38398;DHT22;24179;52.094;4.408;2022-11-20T00:49:56;-2.40;99.90
38398;DHT22;24179;52.094;4.408;2022-11-20T00:52:57;-2.50;99.90
38398;DHT22;24179;52.094;4.408;2022-11-20T00:58:59;-2.50;99.90
38398;DHT22;24179;52.094;4.408;2022-11-20T01:02:00;-2.50;99.90
38398;DHT22;24179;52.094;4.408;2022-11-20T01:05:00;-2.50;99.90
38398;DHT22;24179;52.094;4.408;2022-11-20T01:08:01;-2.50;99.90
38398;DHT22;24179;52.094;4.408;2022-11-20T01:11:02;-2.50;99.90
38398;DHT22;24179;52.094;4.408;2022-11-20T01:14:04;-2.60;99.90
38398;DHT22;24179;52.094;4.408;2022-11-20T01:17:04;-2.60;99.90
38398;DHT22;24179;52.094;4.408;2022-11-20T01:20:05;-2.60;99.90
38398;DHT22;24179;52.094;4.408;2022-11-20T01:23:06;-2.60;99.90
38398;DHT22;24179;52.094;4.408;2022-11-20T01:26:11;-2.60;99.90
38398;DHT22;24179;52.094;4.408;2022-11-20T01:29:15;-2.60;99.90
38398;DHT22;24179;52.094;4.408;2022-11-20T01:32:16;-2.70;99.90
38398;DHT22;24179;52.094;4.408;2022-11-20T01:35:17;-2.70;99.90
38398;DHT22;24179;52.094;4.408;2022-11-20T01:38:17;-2.70;99.90
38398;DHT22;24179;52.094;4.408;2022-11-20T01:41:18;-2.90;99.90
38398;DHT22;24179;52.094;4.408;2022-11-20T01:44:57;-2.90;99.90
38398;DHT22;24179;52.094;4.408;2022-11-20T01:47:57;-2.90;99.90
38398;DHT22;24179;52.094;4.408;2022-11-20T01:50:58;-3.00;99.90
38398;DHT22;24179;52.094;4.408;2022-11-20T01:54:00;-3.00;99.90
38398;DHT22;24179;52.094;4.408;2022-11-20T01:57:02;-3.00;99.90
38398;DHT22;24179;52.094;4.408;2022-11-20T02:00:07;-3.00;99.90
38398;DHT22;24179;52.094;4.408;2022-11-20T02:03:11;-2.90;99.90
38398;DHT22;24179;52.094;4.408;2022-11-20T02:06:25;-3.00;99.90
38398;DHT22;24179;52.094;4.408;2022-11-20T02:09:28;-2.90;99.90
38398;DHT22;24179;52.094;4.408;2022-11-20T02:12:28;-2.90;99.90
38398;DHT22;24179;52.094;4.408;2022-11-20T02:15:47;-3.00;99.90
38398;DHT22;24179;52.094;4.408;2022-11-20T02:18:48;-3.00;99.90
38398;DHT22;24179;52.094;4.408;2022-11-20T02:21:54;-3.00;99.90
38398;DHT22;24179;52.094;4.408;2022-11-20T02:24:56;-3.00;99.90
38398;DHT22;24179;52.094;4.408;2022-11-20T02:27:58;-3.10;99.90
38398;DHT22;24179;52.094;4.408;2022-11-20T02:31:00;-3.10;99.90
38398;DHT22;24179;52.094;4.408;2022-11-20T02:34:00;-3.10;99.90
38398;DHT22;24179;52.094;4.408;2022-11-20T02:37:01;-3.10;99.90
38398;DHT22;24179;52.094;4.408;2022-11-20T02:40:01;-3.20;99.90
38398;DHT22;24179;52.094;4.408;2022-11-20T02:43:02;-3.30;99.90
38398;DHT22;24179;52.094;4.408;2022-11-20T02:46:02;-3.30;99.90
38398;DHT22;24179;52.094;4.408;2022-11-20T02:49:03;-3.30;99.90
38398;DHT22;24179;52.094;4.408;2022-11-20T02:52:04;-3.20;99.90
38398;DHT22;24179;52.094;4.408;2022-11-20T02:55:04;-3.10;99.90
38398;DHT22;24179;52.094;4.408;2022-11-20T02:58:05;-3.10;99.90
38398;DHT22;24179;52.094;4.408;2022-11-20T03:01:06;-3.00;99.90
38398;DHT22;24179;52.094;4.408;2022-11-20T03:04:09;-3.00;99.90
38398;DHT22;24179;52.094;4.408;2022-11-20T03:07:09;-3.00;99.90
38398;DHT22;24179;52.094;4.408;2022-11-20T03:10:10;-3.00;99.90
38398;DHT22;24179;52.094;4.408;2022-11-20T03:13:10;-3.10;99.90
38398;DHT22;24179;52.094;4.408;2022-11-20T03:16:12;-3.00;99.90
38398;DHT22;24179;52.094;4.408;2022-11-20T03:19:13;-3.10;99.90
38398;DHT22;24179;52.094;4.408;2022-11-20T03:22:13;-3.10;99.90
38398;DHT22;24179;52.094;4.408;2022-11-20T03:25:14;-3.20;99.90
38398;DHT22;24179;52.094;4.408;2022-11-20T03:28:14;-3.20;99.90
38398;DHT22;24179;52.094;4.408;2022-11-20T03:31:15;-3.20;99.90
38398;DHT22;24179;52.094;4.408;2022-11-20T03:34:16;-3.20;99.90
38398;DHT22;24179;52.094;4.408;2022-11-20T03:37:16;-3.30;99.90
38398;DHT22;24179;52.094;4.408;2022-11-20T03:40:17;-3.30;99.90
38398;DHT22;24179;52.094;4.408;2022-11-20T03:43:17;-3.30;99.90
38398;DHT22;24179;52.094;4.408;2022-11-20T03:46:18;-3.40;99.90
38398;DHT22;24179;52.094;4.408;2022-11-20T03:49:18;-3.40;99.90
38398;DHT22;24179;52.094;4.408;2022-11-20T03:52:19;-3.40;99.90
38398;DHT22;24179;52.094;4.408;2022-11-20T03:55:19;-3.30;99.90
38398;DHT22;24179;52.094;4.408;2022-11-20T03:58:19;-3.30;99.90
38398;DHT22;24179;52.094;4.408;2022-11-20T04:01:24;-3.30;99.90
38398;DHT22;24179;52.094;4.408;2022-11-20T04:04:25;-3.30;99.90
38398;DHT22;24179;52.094;4.408;2022-11-20T04:07:25;-3.30;99.90
38398;DHT22;24179;52.094;4.408;2022-11-20T04:10:26;-3.30;99.90
38398;DHT22;24179;52.094;4.408;2022-11-20T04:13:26;-3.30;99.90
38398;DHT22;24179;52.094;4.408;2022-11-20T04:16:29;-3.30;99.90
38398;DHT22;24179;52.094;4.408;2022-11-20T04:19:29;-3.30;99.90
38398;DHT22;24179;52.094;4.408;2022-11-20T04:22:30;-3.30;99.90
38398;DHT22;24179;52.094;4.408;2022-11-20T04:25:30;-3.30;99.90
38398;DHT22;24179;52.094;4.408;2022-11-20T04:28:31;-3.30;99.90
38398;DHT22;24179;52.094;4.408;2022-11-20T04:31:32;-3.30;99.90
38398;DHT22;24179;52.094;4.408;2022-11-20T04:34:33;-3.30;99.90
38398;DHT22;24179;52.094;4.408;2022-11-20T04:37:33;-3.30;99.90
38398;DHT22;24179;52.094;4.408;2022-11-20T04:40:33;-3.30;99.90
38398;DHT22;24179;52.094;4.408;2022-11-20T04:43:34;-3.30;99.90
38398;DHT22;24179;52.094;4.408;2022-11-20T04:46:36;-3.30;99.90
38398;DHT22;24179;52.094;4.408;2022-11-20T04:49:37;-3.40;99.90
38398;DHT22;24179;52.094;4.408;2022-11-20T04:52:37;-3.30;99.90
38398;DHT22;24179;52.094;4.408;2022-11-20T04:55:38;-3.40;99.90
38398;DHT22;24179;52.094;4.408;2022-11-20T04:58:38;-3.40;99.90
38398;DHT22;24179;52.094;4.408;2022-11-20T05:01:39;-3.30;99.90
38398;DHT22;24179;52.094;4.408;2022-11-20T05:04:40;-3.30;99.90
38398;DHT22;24179;52.094;4.408;2022-11-20T05:07:40;-3.40;99.90
38398;DHT22;24179;52.094;4.408;2022-11-20T05:10:40;-3.40;99.90
38398;DHT22;24179;52.094;4.408;2022-11-20T05:13:41;-3.50;99.90
38398;DHT22;24179;52.094;4.408;2022-11-20T05:16:42;-3.40;99.90
38398;DHT22;24179;52.094;4.408;2022-11-20T05:19:42;-3.50;99.90
38398;DHT22;24179;52.094;4.408;2022-11-20T05:22:43;-3.50;99.90
38398;DHT22;24179;52.094;4.408;2022-11-20T05:25:44;-3.50;99.90
38398;DHT22;24179;52.094;4.408;2022-11-20T05:28:44;-3.50;99.90
38398;DHT22;24179;52.094;4.408;2022-11-20T05:31:45;-3.50;99.90
38398;DHT22;24179;52.094;4.408;2022-11-20T05:34:45;-3.40;99.90
38398;DHT22;24179;52.094;4.408;2022-11-20T05:37:46;-3.40;99.90
38398;DHT22;24179;52.094;4.408;2022-11-20T05:40:46;-3.40;99.90
38398;DHT22;24179;52.094;4.408;2022-11-20T05:43:47;-3.40;99.90
38398;DHT22;24179;52.094;4.408;2022-11-20T05:46:48;-3.40;99.90
38398;DHT22;24179;52.094;4.408;2022-11-20T05:49:48;-3.30;99.90
38398;DHT22;24179;52.094;4.408;2022-11-20T05:52:49;-3.30;99.90
38398;DHT22;24179;52.094;4.408;2022-11-20T05:55:59;-3.30;99.90
38398;DHT22;24179;52.094;4.408;2022-11-20T05:59:00;-3.30;99.90
38398;DHT22;24179;52.094;4.408;2022-11-20T06:02:00;-3.20;99.90
38398;DHT22;24179;52.094;4.408;2022-11-20T06:05:01;-3.20;99.90
38398;DHT22;24179;52.094;4.408;2022-11-20T06:08:01;-3.20;99.90
38398;DHT22;24179;52.094;4.408;2022-11-20T06:11:05;-3.20;99.90
38398;DHT22;24179;52.094;4.408;2022-11-20T06:14:06;-3.10;99.90
38398;DHT22;24179;52.094;4.408;2022-11-20T06:17:06;-3.10;99.90
38398;DHT22;24179;52.094;4.408;2022-11-20T06:20:07;-3.10;99.90
38398;DHT22;24179;52.094;4.408;2022-11-20T06:23:07;-3.10;99.90
38398;DHT22;24179;52.094;4.408;2022-11-20T06:26:09;-3.10;99.90
38398;DHT22;24179;52.094;4.408;2022-11-20T06:29:10;-3.00;99.90
38398;DHT22;24179;52.094;4.408;2022-11-20T06:32:10;-3.00;99.90
38398;DHT22;24179;52.094;4.408;2022-11-20T06:35:11;-2.90;99.90
38398;DHT22;24179;52.094;4.408;2022-11-20T06:38:11;-2.90;99.90
38398;DHT22;24179;52.094;4.408;2022-11-20T06:41:13;-2.80;99.90
38398;DHT22;24179;52.094;4.408;2022-11-20T06:44:13;-2.70;99.90
38398;DHT22;24179;52.094;4.408;2022-11-20T06:47:14;-2.60;99.90
38398;DHT22;24179;52.094;4.408;2022-11-20T06:50:14;-2.50;99.90
38398;DHT22;24179;52.094;4.408;2022-11-20T06:53:15;-2.50;99.90
38398;DHT22;24179;52.094;4.408;2022-11-20T06:56:15;-2.40;99.90
38398;DHT22;24179;52.094;4.408;2022-11-20T06:59:16;-2.40;99.90
38398;DHT22;24179;52.094;4.408;2022-11-20T07:02:16;-2.30;99.90
38398;DHT22;24179;52.094;4.408;2022-11-20T07:05:17;-2.20;99.90
38398;DHT22;24179;52.094;4.408;2022-11-20T07:08:17;-2.10;99.90
38398;DHT22;24179;52.094;4.408;2022-11-20T07:11:18;-2.10;99.90
38398;DHT22;24179;52.094;4.408;2022-11-20T07:14:18;-2.00;99.90
38398;DHT22;24179;52.094;4.408;2022-11-20T07:17:19;-1.90;99.90
38398;DHT22;24179;52.094;4.408;2022-11-20T07:20:19;-1.90;99.90
38398;DHT22;24179;52.094;4.408;2022-11-20T07:23:20;-1.70;99.90
38398;DHT22;24179;52.094;4.408;2022-11-20T07:26:20;-1.70;99.90
38398;DHT22;24179;52.094;4.408;2022-11-20T07:29:21;-1.60;99.90
38398;DHT22;24179;52.094;4.408;2022-11-20T07:32:22;-1.60;99.90
38398;DHT22;24179;52.094;4.408;2022-11-20T07:35:23;-1.60;99.90
38398;DHT22;24179;52.094;4.408;2022-11-20T07:38:24;-1.50;99.90
38398;DHT22;24179;52.094;4.408;2022-11-20T07:41:24;-1.40;99.90
38398;DHT22;24179;52.094;4.408;2022-11-20T07:44:24;-1.40;99.90
38398;DHT22;24179;52.094;4.408;2022-11-20T07:47:25;-1.30;99.90
38398;DHT22;24179;52.094;4.408;2022-11-20T07:50:25;-1.20;99.90
38398;DHT22;24179;52.094;4.408;2022-11-20T07:53:26;-1.20;99.90
38398;DHT22;24179;52.094;4.408;2022-11-20T07:56:26;-1.10;99.90
38398;DHT22;24179;52.094;4.408;2022-11-20T07:59:27;-1.00;99.90
38398;DHT22;24179;52.094;4.408;2022-11-20T08:02:27;-1.00;99.90
38398;DHT22;24179;52.094;4.408;2022-11-20T08:05:27;-1.00;99.90
38398;DHT22;24179;52.094;4.408;2022-11-20T08:08:28;-0.90;99.90
38398;DHT22;24179;52.094;4.408;2022-11-20T08:11:29;-0.80;99.90
38398;DHT22;24179;52.094;4.408;2022-11-20T08:14:48;-0.80;99.90
38398;DHT22;24179;52.094;4.408;2022-11-20T08:17:48;-0.70;99.90
38398;DHT22;24179;52.094;4.408;2022-11-20T08:20:49;-0.60;99.90
38398;DHT22;24179;52.094;4.408;2022-11-20T08:23:49;-0.50;99.90
38398;DHT22;24179;52.094;4.408;2022-11-20T08:26:50;-0.50;99.90
38398;DHT22;24179;52.094;4.408;2022-11-20T08:29:50;-0.40;99.90
38398;DHT22;24179;52.094;4.408;2022-11-20T08:32:51;-0.30;99.90
38398;DHT22;24179;52.094;4.408;2022-11-20T08:35:51;-0.20;99.90
38398;DHT22;24179;52.094;4.408;2022-11-20T08:38:52;-0.20;99.90
38398;DHT22;24179;52.094;4.408;2022-11-20T08:41:53;-0.10;99.90
38398;DHT22;24179;52.094;4.408;2022-11-20T08:44:54;0.00;99.90
38398;DHT22;24179;52.094;4.408;2022-11-20T08:47:59;0.10;99.90
38398;DHT22;24179;52.094;4.408;2022-11-20T08:50:59;0.10;99.90
38398;DHT22;24179;52.094;4.408;2022-11-20T08:54:00;0.20;99.90
38398;DHT22;24179;52.094;4.408;2022-11-20T08:57:00;0.20;99.90
38398;DHT22;24179;52.094;4.408;2022-11-20T09:00:01;0.30;99.90
38398;DHT22;24179;52.094;4.408;2022-11-20T09:03:02;0.40;99.90
38398;DHT22;24179;52.094;4.408;2022-11-20T09:06:03;0.50;99.90
38398;DHT22;24179;52.094;4.408;2022-11-20T09:09:04;0.50;99.90
38398;DHT22;24179;52.094;4.408;2022-11-20T09:12:06;0.60;99.90
38398;DHT22;24179;52.094;4.408;2022-11-20T09:15:06;0.70;99.90
38398;DHT22;24179;52.094;4.408;2022-11-20T09:18:07;0.80;99.90
38398;DHT22;24179;52.094;4.408;2022-11-20T09:21:11;0.90;99.90
38398;DHT22;24179;52.094;4.408;2022-11-20T09:24:12;1.00;99.90
38398;DHT22;24179;52.094;4.408;2022-11-20T09:27:13;1.10;99.90
38398;DHT22;24179;52.094;4.408;2022-11-20T09:30:14;1.20;99.90
38398;DHT22;24179;52.094;4.408;2022-11-20T09:33:14;1.20;99.90
38398;DHT22;24179;52.094;4.408;2022-11-20T09:36:15;1.30;99.90
38398;DHT22;24179;52.094;4.408;2022-11-20T09:39:17;1.30;99.90
38398;DHT22;24179;52.094;4.408;2022-11-20T09:45:20;1.40;99.90
38398;DHT22;24179;52.094;4.408;2022-11-20T09:54:27;1.60;99.90
38398;DHT22;24179;52.094;4.408;2022-11-20T09:57:32;1.70;99.90
38398;DHT22;24179;52.094;4.408;2022-11-20T10:00:35;1.70;99.90
38398;DHT22;24179;52.094;4.408;2022-11-20T10:03:37;1.70;99.90
38398;DHT22;24179;52.094;4.408;2022-11-20T10:06:42;1.70;99.90
38398;DHT22;24179;52.094;4.408;2022-11-20T10:09:49;1.70;99.90
38398;DHT22;24179;52.094;4.408;2022-11-20T10:13:02;1.70;99.90
38398;DHT22;24179;52.094;4.408;2022-11-20T10:25:17;1.80;99.90
38398;DHT22;24179;52.094;4.408;2022-11-20T10:34:26;1.90;99.90
38398;DHT22;24179;52.094;4.408;2022-11-20T10:37:30;2.10;99.90
38398;DHT22;24179;52.094;4.408;2022-11-20T10:40:38;2.20;99.90
38398;DHT22;24179;52.094;4.408;2022-11-20T10:43:40;2.30;99.90
38398;DHT22;24179;52.094;4.408;2022-11-20T10:46:44;2.10;99.90
38398;DHT22;24179;52.094;4.408;2022-11-20T10:49:46;2.10;99.90
38398;DHT22;24179;52.094;4.408;2022-11-20T10:55:56;2.10;99.90
38398;DHT22;24179;52.094;4.408;2022-11-20T11:02:14;2.20;99.90
38398;DHT22;24179;52.094;4.408;2022-11-20T11:08:38;2.50;99.90
38398;DHT22;24179;52.094;4.408;2022-11-20T11:11:38;2.60;99.90
38398;DHT22;24179;52.094;4.408;2022-11-20T11:14:51;2.60;99.90
38398;DHT22;24179;52.094;4.408;2022-11-20T11:17:52;2.70;99.90
38398;DHT22;24179;52.094;4.408;2022-11-20T11:20:53;2.70;99.90
38398;DHT22;24179;52.094;4.408;2022-11-20T11:24:28;2.80;99.90
38398;DHT22;24179;52.094;4.408;2022-11-20T11:27:21;2.90;99.90
38398;DHT22;24179;52.094;4.408;2022-11-20T11:30:22;2.90;99.90
38398;DHT22;24179;52.094;4.408;2022-11-20T11:33:24;2.90;99.90
38398;DHT22;24179;52.094;4.408;2022-11-20T11:36:25;3.00;99.90
38398;DHT22;24179;52.094;4.408;2022-11-20T11:39:26;3.10;99.90
38398;DHT22;24179;52.094;4.408;2022-11-20T11:42:27;3.20;99.90
38398;DHT22;24179;52.094;4.408;2022-11-20T11:45:28;3.20;99.90
38398;DHT22;24179;52.094;4.408;2022-11-20T11:48:28;3.00;99.90
38398;DHT22;24179;52.094;4.408;2022-11-20T11:54:58;2.90;99.90
38398;DHT22;24179;52.094;4.408;2022-11-20T12:10:45;2.60;99.90
38398;DHT22;24179;52.094;4.408;2022-11-20T12:16:46;2.60;99.90
38398;DHT22;24179;52.094;4.408;2022-11-20T12:19:47;2.70;99.90
38398;DHT22;24179;52.094;4.408;2022-11-20T12:22:56;2.80;99.90
38398;DHT22;24179;52.094;4.408;2022-11-20T12:26:00;2.90;99.90
38398;DHT22;24179;52.094;4.408;2022-11-20T12:32:31;3.00;99.90
38398;DHT22;24179;52.094;4.408;2022-11-20T12:38:55;3.00;99.90
38398;DHT22;24179;52.094;4.408;2022-11-20T12:48:38;2.80;99.90
38398;DHT22;24179;52.094;4.408;2022-11-20T12:51:51;2.80;99.90
38398;DHT22;24179;52.094;4.408;2022-11-20T12:55:21;2.90;99.90
38398;DHT22;24179;52.094;4.408;2022-11-20T12:58:36;2.80;99.90
38398;DHT22;24179;52.094;4.408;2022-11-20T13:07:59;2.90;99.90
38398;DHT22;24179;52.094;4.408;2022-11-20T13:14:24;3.00;99.90
38398;DHT22;24179;52.094;4.408;2022-11-20T13:17:30;2.90;99.90
38398;DHT22;24179;52.094;4.408;2022-11-20T13:20:31;2.90;99.90
38398;DHT22;24179;52.094;4.408;2022-11-20T13:23:33;2.90;99.90
38398;DHT22;24179;52.094;4.408;2022-11-20T13:26:33;2.90;99.90
38398;DHT22;24179;52.094;4.408;2022-11-20T13:29:35;2.90;99.90
38398;DHT22;24179;52.094;4.408;2022-11-20T13:32:36;2.90;99.90
38398;DHT22;24179;52.094;4.408;2022-11-20T13:35:37;2.90;99.90
38398;DHT22;24179;52.094;4.408;2022-11-20T13:38:42;2.90;99.90
38398;DHT22;24179;52.094;4.408;2022-11-20T13:41:53;2.80;99.90
38398;DHT22;24179;52.094;4.408;2022-11-20T13:44:54;2.80;99.90
38398;DHT22;24179;52.094;4.408;2022-11-20T13:47:55;2.80;99.90
38398;DHT22;24179;52.094;4.408;2022-11-20T13:54:17;2.80;99.90
38398;DHT22;24179;52.094;4.408;2022-11-20T14:00:50;2.70;99.90
38398;DHT22;24179;52.094;4.408;2022-11-20T14:03:51;2.80;99.90
38398;DHT22;24179;52.094;4.408;2022-11-20T14:06:53;2.70;99.90
38398;DHT22;24179;52.094;4.408;2022-11-20T14:09:55;2.70;99.90
38398;DHT22;24179;52.094;4.408;2022-11-20T14:12:55;2.70;99.90
38398;DHT22;24179;52.094;4.408;2022-11-20T14:15:56;2.70;99.90
38398;DHT22;24179;52.094;4.408;2022-11-20T14:18:57;2.70;99.90
38398;DHT22;24179;52.094;4.408;2022-11-20T14:22:24;2.80;99.90
38398;DHT22;24179;52.094;4.408;2022-11-20T14:25:25;2.80;99.90
38398;DHT22;24179;52.094;4.408;2022-11-20T14:28:31;2.90;99.90
38398;DHT22;24179;52.094;4.408;2022-11-20T14:31:31;2.90;99.90
38398;DHT22;24179;52.094;4.408;2022-11-20T14:34:33;2.90;99.90
38398;DHT22;24179;52.094;4.408;2022-11-20T14:37:37;2.90;99.90
38398;DHT22;24179;52.094;4.408;2022-11-20T14:40:39;3.00;99.90
38398;DHT22;24179;52.094;4.408;2022-11-20T14:43:39;2.90;99.90
38398;DHT22;24179;52.094;4.408;2022-11-20T14:46:45;2.90;99.90
38398;DHT22;24179;52.094;4.408;2022-11-20T14:49:45;2.90;99.90
38398;DHT22;24179;52.094;4.408;2022-11-20T14:52:50;2.80;99.90
38398;DHT22;24179;52.094;4.408;2022-11-20T14:55:58;2.80;99.90
38398;DHT22;24179;52.094;4.408;2022-11-20T14:58:59;2.80;99.90
38398;DHT22;24179;52.094;4.408;2022-11-20T15:02:03;2.90;99.90
38398;DHT22;24179;52.094;4.408;2022-11-20T15:05:05;2.90;99.90
38398;DHT22;24179;52.094;4.408;2022-11-20T15:08:07;2.90;99.90
38398;DHT22;24179;52.094;4.408;2022-11-20T15:11:17;2.90;99.90
38398;DHT22;24179;52.094;4.408;2022-11-20T15:14:18;2.90;99.90
38398;DHT22;24179;52.094;4.408;2022-11-20T15:17:19;2.90;99.90
38398;DHT22;24179;52.094;4.408;2022-11-20T15:20:19;2.90;99.90
38398;DHT22;24179;52.094;4.408;2022-11-20T15:23:21;2.90;99.90
38398;DHT22;24179;52.094;4.408;2022-11-20T15:26:23;2.90;99.90
38398;DHT22;24179;52.094;4.408;2022-11-20T15:29:24;2.90;99.90
38398;DHT22;24179;52.094;4.408;2022-11-20T15:32:25;2.90;99.90
38398;DHT22;24179;52.094;4.408;2022-11-20T15:35:25;2.90;99.90
38398;DHT22;24179;52.094;4.408;2022-11-20T15:38:26;2.90;99.90
38398;DHT22;24179;52.094;4.408;2022-11-20T15:41:26;2.90;99.90
38398;DHT22;24179;52.094;4.408;2022-11-20T15:44:26;2.90;99.90
38398;DHT22;24179;52.094;4.408;2022-11-20T15:47:31;3.00;99.90
38398;DHT22;24179;52.094;4.408;2022-11-20T15:50:44;2.90;99.90
38398;DHT22;24179;52.094;4.408;2022-11-20T15:53:48;2.90;99.90
38398;DHT22;24179;52.094;4.408;2022-11-20T15:56:49;3.00;99.90
38398;DHT22;24179;52.094;4.408;2022-11-20T15:59:49;3.00;99.90
38398;DHT22;24179;52.094;4.408;2022-11-20T16:02:50;3.00;99.90
38398;DHT22;24179;52.094;4.408;2022-11-20T16:05:50;3.10;99.90
38398;DHT22;24179;52.094;4.408;2022-11-20T16:08:51;3.10;99.90
38398;DHT22;24179;52.094;4.408;2022-11-20T16:11:52;3.20;99.90
38398;DHT22;24179;52.094;4.408;2022-11-20T16:14:53;3.20;99.90
38398;DHT22;24179;52.094;4.408;2022-11-20T16:18:16;3.20;99.90
38398;DHT22;24179;52.094;4.408;2022-11-20T16:21:17;3.20;99.90
38398;DHT22;24179;52.094;4.408;2022-11-20T16:24:17;3.20;99.90
38398;DHT22;24179;52.094;4.408;2022-11-20T16:27:18;3.20;99.90
38398;DHT22;24179;52.094;4.408;2022-11-20T16:30:18;3.20;99.90
38398;DHT22;24179;52.094;4.408;2022-11-20T16:33:19;3.30;99.90
38398;DHT22;24179;52.094;4.408;2022-11-20T16:36:20;3.30;99.90
38398;DHT22;24179;52.094;4.408;2022-11-20T16:39:21;3.40;99.90
38398;DHT22;24179;52.094;4.408;2022-11-20T16:42:21;3.40;99.90
38398;DHT22;24179;52.094;4.408;2022-11-20T16:45:22;3.40;99.90
38398;DHT22;24179;52.094;4.408;2022-11-20T16:48:23;3.40;99.90
38398;DHT22;24179;52.094;4.408;2022-11-20T16:51:24;3.40;99.90
38398;DHT22;24179;52.094;4.408;2022-11-20T16:54:24;3.40;99.90
38398;DHT22;24179;52.094;4.408;2022-11-20T16:57:28;3.40;99.90
38398;DHT22;24179;52.094;4.408;2022-11-20T17:00:29;3.50;99.90
38398;DHT22;24179;52.094;4.408;2022-11-20T17:03:29;3.50;99.90
38398;DHT22;24179;52.094;4.408;2022-11-20T17:06:30;3.50;99.90
38398;DHT22;24179;52.094;4.408;2022-11-20T17:09:31;3.50;99.90
38398;DHT22;24179;52.094;4.408;2022-11-20T17:12:32;3.60;99.90
38398;DHT22;24179;52.094;4.408;2022-11-20T17:15:32;3.60;99.90
38398;DHT22;24179;52.094;4.408;2022-11-20T17:18:33;3.60;99.90
38398;DHT22;24179;52.094;4.408;2022-11-20T17:21:34;3.60;99.90
38398;DHT22;24179;52.094;4.408;2022-11-20T17:24:37;3.70;99.90
38398;DHT22;24179;52.094;4.408;2022-11-20T17:27:37;3.70;99.90
38398;DHT22;24179;52.094;4.408;2022-11-20T17:30:38;3.60;99.90
38398;DHT22;24179;52.094;4.408;2022-11-20T17:33:39;3.70;99.90
38398;DHT22;24179;52.094;4.408;2022-11-20T17:36:40;3.60;99.90
38398;DHT22;24179;52.094;4.408;2022-11-20T17:39:44;3.70;99.90
38398;DHT22;24179;52.094;4.408;2022-11-20T17:42:44;3.60;99.90
38398;DHT22;24179;52.094;4.408;2022-11-20T17:45:44;3.70;99.90
38398;DHT22;24179;52.094;4.408;2022-11-20T17:48:45;3.70;99.90
38398;DHT22;24179;52.094;4.408;2022-11-20T17:51:46;3.70;99.90
38398;DHT22;24179;52.094;4.408;2022-11-20T17:54:47;3.70;99.90
38398;DHT22;24179;52.094;4.408;2022-11-20T17:57:48;3.60;99.90
38398;DHT22;24179;52.094;4.408;2022-11-20T18:00:51;3.70;99.90
38398;DHT22;24179;52.094;4.408;2022-11-20T18:03:52;3.70;99.90
38398;DHT22;24179;52.094;4.408;2022-11-20T18:06:52;3.60;99.90
38398;DHT22;24179;52.094;4.408;2022-11-20T18:09:53;3.60;99.90
38398;DHT22;24179;52.094;4.408;2022-11-20T18:12:53;3.50;99.90
38398;DHT22;24179;52.094;4.408;2022-11-20T18:15:53;3.40;99.90
38398;DHT22;24179;52.094;4.408;2022-11-20T18:18:55;3.40;99.90
38398;DHT22;24179;52.094;4.408;2022-11-20T18:21:56;3.30;99.90
38398;DHT22;24179;52.094;4.408;2022-11-20T18:24:57;3.30;99.90
38398;DHT22;24179;52.094;4.408;2022-11-20T18:27:57;3.40;99.90
38398;DHT22;24179;52.094;4.408;2022-11-20T18:30:58;3.40;99.90
38398;DHT22;24179;52.094;4.408;2022-11-20T18:33:58;3.40;99.90
38398;DHT22;24179;52.094;4.408;2022-11-20T18:36:59;3.30;99.90
38398;DHT22;24179;52.094;4.408;2022-11-20T18:39:59;3.30;99.90
38398;DHT22;24179;52.094;4.408;2022-11-20T18:42:59;3.20;99.90
38398;DHT22;24179;52.094;4.408;2022-11-20T18:46:18;3.10;99.90
38398;DHT22;24179;52.094;4.408;2022-11-20T18:49:21;3.00;99.90
38398;DHT22;24179;52.094;4.408;2022-11-20T18:52:22;3.00;99.90
38398;DHT22;24179;52.094;4.408;2022-11-20T18:55:23;3.00;99.90
38398;DHT22;24179;52.094;4.408;2022-11-20T18:58:26;2.90;99.90
38398;DHT22;24179;52.094;4.408;2022-11-20T19:01:27;2.80;99.90
38398;DHT22;24179;52.094;4.408;2022-11-20T19:04:27;2.80;99.90
38398;DHT22;24179;52.094;4.408;2022-11-20T19:07:29;2.70;99.90
38398;DHT22;24179;52.094;4.408;2022-11-20T19:10:29;2.60;99.90
38398;DHT22;24179;52.094;4.408;2022-11-20T19:13:31;2.60;99.90
38398;DHT22;24179;52.094;4.408;2022-11-20T19:16:31;2.50;99.90
38398;DHT22;24179;52.094;4.408;2022-11-20T19:19:32;2.50;99.90
38398;DHT22;24179;52.094;4.408;2022-11-20T19:22:33;2.50;99.90
38398;DHT22;24179;52.094;4.408;2022-11-20T19:25:33;2.50;99.90
38398;DHT22;24179;52.094;4.408;2022-11-20T19:28:34;2.60;99.90
38398;DHT22;24179;52.094;4.408;2022-11-20T19:31:35;2.60;99.90
38398;DHT22;24179;52.094;4.408;2022-11-20T19:34:35;2.70;99.90
38398;DHT22;24179;52.094;4.408;2022-11-20T19:37:36;2.80;99.90
38398;DHT22;24179;52.094;4.408;2022-11-20T19:40:36;2.80;99.90
38398;DHT22;24179;52.094;4.408;2022-11-20T19:43:37;2.90;99.90
38398;DHT22;24179;52.094;4.408;2022-11-20T19:46:37;2.90;99.90
38398;DHT22;24179;52.094;4.408;2022-11-20T19:49:38;2.90;99.90
38398;DHT22;24179;52.094;4.408;2022-11-20T19:52:40;3.00;99.90
38398;DHT22;24179;52.094;4.408;2022-11-20T19:55:41;3.00;99.90
38398;DHT22;24179;52.094;4.408;2022-11-20T19:58:44;3.00;99.90
38398;DHT22;24179;52.094;4.408;2022-11-20T20:01:44;3.00;99.90
38398;DHT22;24179;52.094;4.408;2022-11-20T20:04:45;3.00;99.90
38398;DHT22;24179;52.094;4.408;2022-11-20T20:07:46;3.00;99.90
38398;DHT22;24179;52.094;4.408;2022-11-20T20:10:46;3.00;99.90
38398;DHT22;24179;52.094;4.408;2022-11-20T20:13:47;3.00;99.90
38398;DHT22;24179;52.094;4.408;2022-11-20T20:16:47;3.10;99.90
38398;DHT22;24179;52.094;4.408;2022-11-20T20:19:50;3.10;99.90
38398;DHT22;24179;52.094;4.408;2022-11-20T20:22:51;3.10;99.90
38398;DHT22;24179;52.094;4.408;2022-11-20T20:25:51;3.10;99.90
38398;DHT22;24179;52.094;4.408;2022-11-20T20:28:52;3.00;99.90
38398;DHT22;24179;52.094;4.408;2022-11-20T20:31:52;3.10;99.90
38398;DHT22;24179;52.094;4.408;2022-11-20T20:34:53;3.00;99.90
38398;DHT22;24179;52.094;4.408;2022-11-20T20:37:53;3.00;99.90
38398;DHT22;24179;52.094;4.408;2022-11-20T20:40:53;2.90;99.90
38398;DHT22;24179;52.094;4.408;2022-11-20T20:43:54;2.90;99.90
38398;DHT22;24179;52.094;4.408;2022-11-20T20:47:13;2.90;99.90